sensor_id;sensor_type;location;lat;lon;timestamp;temperature;humidity
52415;DHT22;38340;52.964;6.086;2023-05-19T00:00:57;7.80;99.90
52415;DHT22;38340;52.964;6.086;2023-05-19T00:03:23;7.80;99.90
52415;DHT22;38340;52.964;6.086;2023-05-19T00:05:52;7.70;99.90
52415;DHT22;38340;52.964;6.086;2023-05-19T00:08:18;7.80;99.90
52415;DHT22;38340;52.964;6.086;2023-05-19T00:10:45;7.70;99.90
52415;DHT22;38340;52.964;6.086;2023-05-19T00:13:11;7.70;99.90
52415;DHT22;38340;52.964;6.086;2023-05-19T00:15:37;7.70;99.90
52415;DHT22;38340;52.964;6.086;2023-05-19T00:18:02;7.70;99.90
52415;DHT22;38340;52.964;6.086;2023-05-19T00:20:28;7.60;99.90
52415;DHT22;38340;52.964;6.086;2023-05-19T00:22:54;7.60;99.90
52415;DHT22;38340;52.964;6.086;2023-05-19T00:25:20;7.60;99.90
52415;DHT22;38340;52.964;6.086;2023-05-19T00:27:45;7.60;99.90
52415;DHT22;38340;52.964;6.086;2023-05-19T00:30:11;7.60;99.90
52415;DHT22;38340;52.964;6.086;2023-05-19T00:32:37;7.50;99.90
52415;DHT22;38340;52.964;6.086;2023-05-19T00:35:03;7.50;99.90
52415;DHT22;38340;52.964;6.086;2023-05-19T00:37:29;7.50;99.90
52415;DHT22;38340;52.964;6.086;2023-05-19T00:39:55;7.40;99.90
52415;DHT22;38340;52.964;6.086;2023-05-19T00:42:20;7.50;99.90
52415;DHT22;38340;52.964;6.086;2023-05-19T00:44:46;7.50;99.90
52415;DHT22;38340;52.964;6.086;2023-05-19T00:47:12;7.40;99.90
52415;DHT22;38340;52.964;6.086;2023-05-19T00:49:37;7.40;99.90
52415;DHT22;38340;52.964;6.086;2023-05-19T00:52:05;7.40;99.90
52415;DHT22;38340;52.964;6.086;2023-05-19T00:54:32;7.30;99.90
52415;DHT22;38340;52.964;6.086;2023-05-19T00:56:58;7.30;99.90
52415;DHT22;38340;52.964;6.086;2023-05-19T00:59:24;7.30;99.90
52415;DHT22;38340;52.964;6.086;2023-05-19T01:01:51;7.30;99.90
52415;DHT22;38340;52.964;6.086;2023-05-19T01:04:20;7.30;99.90
52415;DHT22;38340;52.964;6.086;2023-05-19T01:06:47;7.30;99.90
52415;DHT22;38340;52.964;6.086;2023-05-19T01:09:15;7.20;99.90
52415;DHT22;38340;52.964;6.086;2023-05-19T01:11:41;7.20;99.90
52415;DHT22;38340;52.964;6.086;2023-05-19T01:14:07;7.10;99.90
52415;DHT22;38340;52.964;6.086;2023-05-19T01:16:39;7.10;99.90
52415;DHT22;38340;52.964;6.086;2023-05-19T01:22:28;7.00;99.90
52415;DHT22;38340;52.964;6.086;2023-05-19T01:32:58;7.00;99.90
52415;DHT22;38340;52.964;6.086;2023-05-19T01:35:25;7.00;99.90
52415;DHT22;38340;52.964;6.086;2023-05-19T01:37:54;6.90;99.90
52415;DHT22;38340;52.964;6.086;2023-05-19T01:40:21;6.90;99.90
52415;DHT22;38340;52.964;6.086;2023-05-19T01:42:48;6.90;99.90
52415;DHT22;38340;52.964;6.086;2023-05-19T01:45:15;6.90;99.90
52415;DHT22;38340;52.964;6.086;2023-05-19T01:47:47;6.90;99.90
52415;DHT22;38340;52.964;6.086;2023-05-19T01:50:13;6.90;99.90
52415;DHT22;38340;52.964;6.086;2023-05-19T01:52:38;6.90;99.90
52415;DHT22;38340;52.964;6.086;2023-05-19T01:55:05;6.90;99.90
52415;DHT22;38340;52.964;6.086;2023-05-19T02:05:56;6.90;99.90
52415;DHT22;38340;52.964;6.086;2023-05-19T02:08:31;6.90;99.90
52415;DHT22;38340;52.964;6.086;2023-05-19T02:11:51;6.90;99.90
52415;DHT22;38340;52.964;6.086;2023-05-19T02:14:15;6.90;99.90
52415;DHT22;38340;52.964;6.086;2023-05-19T02:16:44;6.80;99.90
52415;DHT22;38340;52.964;6.086;2023-05-19T02:19:25;6.90;99.90
52415;DHT22;38340;52.964;6.086;2023-05-19T02:21:52;6.80;99.90
52415;DHT22;38340;52.964;6.086;2023-05-19T02:24:18;6.80;99.90
52415;DHT22;38340;52.964;6.086;2023-05-19T02:26:45;6.80;99.90
52415;DHT22;38340;52.964;6.086;2023-05-19T02:29:11;6.80;99.90
52415;DHT22;38340;52.964;6.086;2023-05-19T02:31:36;6.70;99.90
52415;DHT22;38340;52.964;6.086;2023-05-19T02:34:02;6.70;99.90
52415;DHT22;38340;52.964;6.086;2023-05-19T02:36:32;6.70;99.90
52415;DHT22;38340;52.964;6.086;2023-05-19T02:38:59;6.70;99.90
52415;DHT22;38340;52.964;6.086;2023-05-19T02:41:26;6.70;99.90
52415;DHT22;38340;52.964;6.086;2023-05-19T02:43:52;6.60;99.90
52415;DHT22;38340;52.964;6.086;2023-05-19T02:46:18;6.60;99.90
52415;DHT22;38340;52.964;6.086;2023-05-19T02:48:43;6.60;99.90
52415;DHT22;38340;52.964;6.086;2023-05-19T02:51:09;6.50;99.90
52415;DHT22;38340;52.964;6.086;2023-05-19T02:53:35;6.50;99.90
52415;DHT22;38340;52.964;6.086;2023-05-19T02:56:01;6.50;99.90
52415;DHT22;38340;52.964;6.086;2023-05-19T02:58:26;6.50;99.90
52415;DHT22;38340;52.964;6.086;2023-05-19T03:00:52;6.40;99.90
52415;DHT22;38340;52.964;6.086;2023-05-19T03:03:18;6.40;99.90
52415;DHT22;38340;52.964;6.086;2023-05-19T03:05:44;6.40;99.90
52415;DHT22;38340;52.964;6.086;2023-05-19T03:08:10;6.40;99.90
52415;DHT22;38340;52.964;6.086;2023-05-19T03:10:35;6.50;99.90
52415;DHT22;38340;52.964;6.086;2023-05-19T03:13:01;6.50;99.90
52415;DHT22;38340;52.964;6.086;2023-05-19T03:15:27;6.50;99.90
52415;DHT22;38340;52.964;6.086;2023-05-19T03:17:52;6.50;99.90
52415;DHT22;38340;52.964;6.086;2023-05-19T03:20:18;6.50;99.90
52415;DHT22;38340;52.964;6.086;2023-05-19T03:22:44;6.50;99.90
52415;DHT22;38340;52.964;6.086;2023-05-19T03:25:10;6.50;99.90
52415;DHT22;38340;52.964;6.086;2023-05-19T03:27:35;6.50;99.90
52415;DHT22;38340;52.964;6.086;2023-05-19T03:30:01;6.50;99.90
52415;DHT22;38340;52.964;6.086;2023-05-19T03:32:27;6.50;99.90
52415;DHT22;38340;52.964;6.086;2023-05-19T03:34:52;6.50;99.90
52415;DHT22;38340;52.964;6.086;2023-05-19T03:37:18;6.50;99.90
52415;DHT22;38340;52.964;6.086;2023-05-19T03:39:44;6.50;99.90
52415;DHT22;38340;52.964;6.086;2023-05-19T03:42:09;6.50;99.90
52415;DHT22;38340;52.964;6.086;2023-05-19T03:44:35;6.40;99.90
52415;DHT22;38340;52.964;6.086;2023-05-19T03:47:01;6.40;99.90
52415;DHT22;38340;52.964;6.086;2023-05-19T03:49:26;6.40;99.90
52415;DHT22;38340;52.964;6.086;2023-05-19T03:51:52;6.40;99.90
52415;DHT22;38340;52.964;6.086;2023-05-19T03:54:18;6.40;99.90
52415;DHT22;38340;52.964;6.086;2023-05-19T03:56:45;6.30;99.90
52415;DHT22;38340;52.964;6.086;2023-05-19T03:59:11;6.30;99.90
52415;DHT22;38340;52.964;6.086;2023-05-19T04:01:37;6.30;99.90
52415;DHT22;38340;52.964;6.086;2023-05-19T04:04:03;6.30;99.90
52415;DHT22;38340;52.964;6.086;2023-05-19T04:06:28;6.30;99.90
52415;DHT22;38340;52.964;6.086;2023-05-19T04:08:55;6.30;99.90
52415;DHT22;38340;52.964;6.086;2023-05-19T04:11:20;6.40;99.90
52415;DHT22;38340;52.964;6.086;2023-05-19T04:13:46;6.50;99.90
52415;DHT22;38340;52.964;6.086;2023-05-19T04:16:12;6.60;99.90
52415;DHT22;38340;52.964;6.086;2023-05-19T04:18:38;6.70;99.90
52415;DHT22;38340;52.964;6.086;2023-05-19T04:21:04;6.80;99.90
52415;DHT22;38340;52.964;6.086;2023-05-19T04:23:29;7.00;99.90
52415;DHT22;38340;52.964;6.086;2023-05-19T04:25:56;7.50;99.90
52415;DHT22;38340;52.964;6.086;2023-05-19T04:28:23;8.10;99.90
52415;DHT22;38340;52.964;6.086;2023-05-19T04:30:49;8.60;99.90
52415;DHT22;38340;52.964;6.086;2023-05-19T04:33:15;9.10;99.90
52415;DHT22;38340;52.964;6.086;2023-05-19T04:35:41;9.60;99.90
52415;DHT22;38340;52.964;6.086;2023-05-19T04:38:08;10.00;99.90
52415;DHT22;38340;52.964;6.086;2023-05-19T04:40:34;10.40;99.90
52415;DHT22;38340;52.964;6.086;2023-05-19T04:43:00;10.70;99.90
52415;DHT22;38340;52.964;6.086;2023-05-19T04:45:26;11.10;99.90
52415;DHT22;38340;52.964;6.086;2023-05-19T04:47:52;11.20;99.90
52415;DHT22;38340;52.964;6.086;2023-05-19T04:50:22;11.20;99.90
52415;DHT22;38340;52.964;6.086;2023-05-19T04:52:49;11.10;99.90
52415;DHT22;38340;52.964;6.086;2023-05-19T04:55:14;11.10;99.90
52415;DHT22;38340;52.964;6.086;2023-05-19T04:57:41;11.30;99.90
52415;DHT22;38340;52.964;6.086;2023-05-19T05:00:07;11.60;99.90
52415;DHT22;38340;52.964;6.086;2023-05-19T05:02:37;11.70;99.90
52415;DHT22;38340;52.964;6.086;2023-05-19T05:05:02;11.80;99.90
52415;DHT22;38340;52.964;6.086;2023-05-19T05:07:28;12.00;99.90
52415;DHT22;38340;52.964;6.086;2023-05-19T05:09:54;12.40;99.90
52415;DHT22;38340;52.964;6.086;2023-05-19T05:12:20;12.90;99.90
52415;DHT22;38340;52.964;6.086;2023-05-19T05:14:46;13.20;99.90
52415;DHT22;38340;52.964;6.086;2023-05-19T05:17:12;13.40;99.90
52415;DHT22;38340;52.964;6.086;2023-05-19T05:19:39;13.60;99.90
52415;DHT22;38340;52.964;6.086;2023-05-19T05:22:05;13.70;99.90
52415;DHT22;38340;52.964;6.086;2023-05-19T05:24:31;13.90;99.90
52415;DHT22;38340;52.964;6.086;2023-05-19T05:26:57;14.10;99.90
52415;DHT22;38340;52.964;6.086;2023-05-19T05:29:24;14.20;99.90
52415;DHT22;38340;52.964;6.086;2023-05-19T05:31:50;14.20;99.90
52415;DHT22;38340;52.964;6.086;2023-05-19T05:34:15;14.10;99.90
52415;DHT22;38340;52.964;6.086;2023-05-19T05:36:41;14.00;99.90
52415;DHT22;38340;52.964;6.086;2023-05-19T05:39:07;13.90;99.90
52415;DHT22;38340;52.964;6.086;2023-05-19T05:41:33;13.70;99.90
52415;DHT22;38340;52.964;6.086;2023-05-19T05:44:01;13.50;99.90
52415;DHT22;38340;52.964;6.086;2023-05-19T05:46:27;13.30;99.90
52415;DHT22;38340;52.964;6.086;2023-05-19T05:48:53;13.30;99.90
52415;DHT22;38340;52.964;6.086;2023-05-19T05:51:22;13.10;99.90
52415;DHT22;38340;52.964;6.086;2023-05-19T05:53:51;13.10;99.90
52415;DHT22;38340;52.964;6.086;2023-05-19T05:56:18;12.90;99.90
52415;DHT22;38340;52.964;6.086;2023-05-19T05:58:44;12.70;99.90
52415;DHT22;38340;52.964;6.086;2023-05-19T06:01:10;12.50;99.90
52415;DHT22;38340;52.964;6.086;2023-05-19T06:03:40;12.40;99.90
52415;DHT22;38340;52.964;6.086;2023-05-19T06:06:06;12.30;99.90
52415;DHT22;38340;52.964;6.086;2023-05-19T06:08:32;12.30;99.90
52415;DHT22;38340;52.964;6.086;2023-05-19T06:10:58;12.30;99.90
52415;DHT22;38340;52.964;6.086;2023-05-19T06:13:24;12.30;99.90
52415;DHT22;38340;52.964;6.086;2023-05-19T06:15:51;12.30;99.90
52415;DHT22;38340;52.964;6.086;2023-05-19T06:18:17;12.40;99.90
52415;DHT22;38340;52.964;6.086;2023-05-19T06:20:43;12.40;99.90
52415;DHT22;38340;52.964;6.086;2023-05-19T06:23:09;12.40;99.90
52415;DHT22;38340;52.964;6.086;2023-05-19T06:25:35;12.40;99.90
52415;DHT22;38340;52.964;6.086;2023-05-19T06:28:01;12.40;99.90
52415;DHT22;38340;52.964;6.086;2023-05-19T06:30:27;12.50;99.90
52415;DHT22;38340;52.964;6.086;2023-05-19T06:32:52;12.70;99.90
52415;DHT22;38340;52.964;6.086;2023-05-19T06:35:18;12.80;99.90
52415;DHT22;38340;52.964;6.086;2023-05-19T06:37:44;12.80;99.90
52415;DHT22;38340;52.964;6.086;2023-05-19T06:40:10;13.00;99.90
52415;DHT22;38340;52.964;6.086;2023-05-19T06:42:36;13.00;99.90
52415;DHT22;38340;52.964;6.086;2023-05-19T06:45:01;13.10;99.90
52415;DHT22;38340;52.964;6.086;2023-05-19T06:47:27;13.20;99.90
52415;DHT22;38340;52.964;6.086;2023-05-19T06:49:53;13.30;99.90
52415;DHT22;38340;52.964;6.086;2023-05-19T06:52:20;13.40;99.90
52415;DHT22;38340;52.964;6.086;2023-05-19T06:54:47;13.50;99.90
52415;DHT22;38340;52.964;6.086;2023-05-19T06:57:13;13.60;80.60
52415;DHT22;38340;52.964;6.086;2023-05-19T06:59:39;13.60;1.00
52415;DHT22;38340;52.964;6.086;2023-05-19T07:02:08;13.70;1.00
52415;DHT22;38340;52.964;6.086;2023-05-19T07:04:35;13.80;99.90
52415;DHT22;38340;52.964;6.086;2023-05-19T07:07:01;13.80;99.90
52415;DHT22;38340;52.964;6.086;2023-05-19T07:09:27;13.90;99.90
52415;DHT22;38340;52.964;6.086;2023-05-19T07:11:52;14.00;99.90
52415;DHT22;38340;52.964;6.086;2023-05-19T07:14:18;14.10;99.90
52415;DHT22;38340;52.964;6.086;2023-05-19T07:16:45;14.20;1.00
52415;DHT22;38340;52.964;6.086;2023-05-19T07:19:11;14.30;1.00
52415;DHT22;38340;52.964;6.086;2023-05-19T07:21:36;14.30;99.90
52415;DHT22;38340;52.964;6.086;2023-05-19T07:24:02;14.40;99.90
52415;DHT22;38340;52.964;6.086;2023-05-19T07:26:28;14.40;99.90
52415;DHT22;38340;52.964;6.086;2023-05-19T07:28:54;14.50;99.90
52415;DHT22;38340;52.964;6.086;2023-05-19T07:31:19;14.50;67.80
52415;DHT22;38340;52.964;6.086;2023-05-19T07:33:45;14.70;34.30
52415;DHT22;38340;52.964;6.086;2023-05-19T07:36:11;14.80;1.00
52415;DHT22;38340;52.964;6.086;2023-05-19T07:38:36;14.80;1.00
52415;DHT22;38340;52.964;6.086;2023-05-19T07:41:02;15.00;1.00
52415;DHT22;38340;52.964;6.086;2023-05-19T07:43:28;15.10;1.00
52415;DHT22;38340;52.964;6.086;2023-05-19T07:45:54;15.20;1.00
52415;DHT22;38340;52.964;6.086;2023-05-19T07:48:21;15.30;99.90
52415;DHT22;38340;52.964;6.086;2023-05-19T07:50:49;15.30;99.90
52415;DHT22;38340;52.964;6.086;2023-05-19T07:53:15;15.40;99.90
52415;DHT22;38340;52.964;6.086;2023-05-19T07:55:41;15.50;99.90
52415;DHT22;38340;52.964;6.086;2023-05-19T07:58:06;15.60;99.90
52415;DHT22;38340;52.964;6.086;2023-05-19T08:00:32;15.80;21.70
52415;DHT22;38340;52.964;6.086;2023-05-19T08:02:59;15.80;1.00
52415;DHT22;38340;52.964;6.086;2023-05-19T08:05:24;15.90;1.00
52415;DHT22;38340;52.964;6.086;2023-05-19T08:07:50;15.90;99.90
52415;DHT22;38340;52.964;6.086;2023-05-19T08:10:16;15.80;99.90
52415;DHT22;38340;52.964;6.086;2023-05-19T08:12:42;15.80;99.90
52415;DHT22;38340;52.964;6.086;2023-05-19T08:15:09;15.90;99.90
52415;DHT22;38340;52.964;6.086;2023-05-19T08:17:37;15.90;99.90
52415;DHT22;38340;52.964;6.086;2023-05-19T08:20:04;16.00;99.90
52415;DHT22;38340;52.964;6.086;2023-05-19T08:22:32;16.00;99.90
52415;DHT22;38340;52.964;6.086;2023-05-19T08:24:58;16.10;99.90
52415;DHT22;38340;52.964;6.086;2023-05-19T08:27:24;16.10;99.90
52415;DHT22;38340;52.964;6.086;2023-05-19T08:29:50;16.20;99.90
52415;DHT22;38340;52.964;6.086;2023-05-19T08:32:15;16.30;99.90
52415;DHT22;38340;52.964;6.086;2023-05-19T08:34:41;16.30;99.90
52415;DHT22;38340;52.964;6.086;2023-05-19T08:37:07;16.40;99.90
52415;DHT22;38340;52.964;6.086;2023-05-19T08:39:33;16.40;99.90
52415;DHT22;38340;52.964;6.086;2023-05-19T08:41:59;16.40;36.60
52415;DHT22;38340;52.964;6.086;2023-05-19T08:44:26;16.30;33.80
52415;DHT22;38340;52.964;6.086;2023-05-19T08:46:53;16.30;51.90
52415;DHT22;38340;52.964;6.086;2023-05-19T08:49:22;16.30;64.30
52415;DHT22;38340;52.964;6.086;2023-05-19T08:52:08;16.30;17.90
52415;DHT22;38340;52.964;6.086;2023-05-19T08:54:45;16.20;1.00
52415;DHT22;38340;52.964;6.086;2023-05-19T08:57:15;16.20;12.30
52415;DHT22;38340;52.964;6.086;2023-05-19T08:59:42;16.30;17.40
52415;DHT22;38340;52.964;6.086;2023-05-19T09:02:10;16.40;1.00
52415;DHT22;38340;52.964;6.086;2023-05-19T09:04:38;16.50;64.50
52415;DHT22;38340;52.964;6.086;2023-05-19T09:07:05;16.50;1.00
52415;DHT22;38340;52.964;6.086;2023-05-19T09:09:31;16.50;1.00
52415;DHT22;38340;52.964;6.086;2023-05-19T09:11:57;16.60;1.00
52415;DHT22;38340;52.964;6.086;2023-05-19T09:14:22;16.60;6.30
52415;DHT22;38340;52.964;6.086;2023-05-19T09:16:48;16.70;90.80
52415;DHT22;38340;52.964;6.086;2023-05-19T09:19:17;16.70;73.20
52415;DHT22;38340;52.964;6.086;2023-05-19T09:21:43;16.70;9.10
52415;DHT22;38340;52.964;6.086;2023-05-19T09:24:10;16.80;40.40
52415;DHT22;38340;52.964;6.086;2023-05-19T09:26:40;16.90;23.70
52415;DHT22;38340;52.964;6.086;2023-05-19T09:29:10;17.00;1.00
52415;DHT22;38340;52.964;6.086;2023-05-19T09:31:36;17.00;1.00
52415;DHT22;38340;52.964;6.086;2023-05-19T09:34:02;17.00;1.00
52415;DHT22;38340;52.964;6.086;2023-05-19T09:36:28;17.00;1.00
52415;DHT22;38340;52.964;6.086;2023-05-19T09:38:55;17.20;1.00
52415;DHT22;38340;52.964;6.086;2023-05-19T09:41:20;17.30;1.00
52415;DHT22;38340;52.964;6.086;2023-05-19T09:43:53;17.50;21.60
52415;DHT22;38340;52.964;6.086;2023-05-19T09:46:23;17.70;15.10
52415;DHT22;38340;52.964;6.086;2023-05-19T09:48:56;17.70;1.00
52415;DHT22;38340;52.964;6.086;2023-05-19T09:51:23;17.70;1.00
52415;DHT22;38340;52.964;6.086;2023-05-19T09:53:49;17.50;1.00
52415;DHT22;38340;52.964;6.086;2023-05-19T09:56:14;17.20;1.00
52415;DHT22;38340;52.964;6.086;2023-05-19T09:58:41;17.00;1.00
52415;DHT22;38340;52.964;6.086;2023-05-19T10:01:07;16.90;1.00
52415;DHT22;38340;52.964;6.086;2023-05-19T10:03:34;16.90;5.80
52415;DHT22;38340;52.964;6.086;2023-05-19T10:06:05;17.00;1.00
52415;DHT22;38340;52.964;6.086;2023-05-19T10:08:33;17.00;1.00
52415;DHT22;38340;52.964;6.086;2023-05-19T10:10:59;17.20;21.70
52415;DHT22;38340;52.964;6.086;2023-05-19T10:13:26;17.30;33.90
52415;DHT22;38340;52.964;6.086;2023-05-19T10:15:52;17.50;33.60
52415;DHT22;38340;52.964;6.086;2023-05-19T10:18:18;17.50;1.00
52415;DHT22;38340;52.964;6.086;2023-05-19T10:20:45;17.60;1.00
52415;DHT22;38340;52.964;6.086;2023-05-19T10:23:11;17.50;1.00
52415;DHT22;38340;52.964;6.086;2023-05-19T10:25:37;17.60;1.00
52415;DHT22;38340;52.964;6.086;2023-05-19T10:28:13;17.60;1.00
52415;DHT22;38340;52.964;6.086;2023-05-19T10:30:44;17.70;1.00
52415;DHT22;38340;52.964;6.086;2023-05-19T10:33:14;17.80;1.00
52415;DHT22;38340;52.964;6.086;2023-05-19T10:41:03;17.90;1.00
52415;DHT22;38340;52.964;6.086;2023-05-19T10:46:28;17.90;1.00
52415;DHT22;38340;52.964;6.086;2023-05-19T10:48:54;17.80;1.00
52415;DHT22;38340;52.964;6.086;2023-05-19T10:51:20;17.60;1.00
52415;DHT22;38340;52.964;6.086;2023-05-19T10:53:52;17.60;1.00
52415;DHT22;38340;52.964;6.086;2023-05-19T10:56:29;17.80;1.00
52415;DHT22;38340;52.964;6.086;2023-05-19T10:58:55;17.90;1.00
52415;DHT22;38340;52.964;6.086;2023-05-19T11:01:21;17.90;1.00
52415;DHT22;38340;52.964;6.086;2023-05-19T11:03:53;17.90;1.00
52415;DHT22;38340;52.964;6.086;2023-05-19T11:06:32;17.90;1.00
52415;DHT22;38340;52.964;6.086;2023-05-19T11:09:15;17.80;18.70
52415;DHT22;38340;52.964;6.086;2023-05-19T11:11:52;17.70;24.70
52415;DHT22;38340;52.964;6.086;2023-05-19T11:14:20;17.80;1.00
52415;DHT22;38340;52.964;6.086;2023-05-19T11:16:57;17.90;1.00
52415;DHT22;38340;52.964;6.086;2023-05-19T11:19:27;17.90;1.00
52415;DHT22;38340;52.964;6.086;2023-05-19T11:21:54;18.10;1.00
52415;DHT22;38340;52.964;6.086;2023-05-19T11:27:28;18.00;1.00
52415;DHT22;38340;52.964;6.086;2023-05-19T11:32:35;18.10;1.00
52415;DHT22;38340;52.964;6.086;2023-05-19T11:35:07;18.30;1.00
52415;DHT22;38340;52.964;6.086;2023-05-19T11:37:33;18.50;1.00
52415;DHT22;38340;52.964;6.086;2023-05-19T11:40:03;18.70;1.00
52415;DHT22;38340;52.964;6.086;2023-05-19T11:42:32;18.90;1.00
52415;DHT22;38340;52.964;6.086;2023-05-19T11:44:59;18.80;1.00
52415;DHT22;38340;52.964;6.086;2023-05-19T11:47:26;18.80;1.00
52415;DHT22;38340;52.964;6.086;2023-05-19T11:49:53;18.80;1.00
52415;DHT22;38340;52.964;6.086;2023-05-19T11:52:24;18.70;1.00
52415;DHT22;38340;52.964;6.086;2023-05-19T11:54:50;18.80;1.00
52415;DHT22;38340;52.964;6.086;2023-05-19T11:57:16;18.80;1.00
52415;DHT22;38340;52.964;6.086;2023-05-19T11:59:42;18.80;1.00
52415;DHT22;38340;52.964;6.086;2023-05-19T12:02:25;18.80;1.00
52415;DHT22;38340;52.964;6.086;2023-05-19T12:04:52;19.00;1.00
52415;DHT22;38340;52.964;6.086;2023-05-19T12:07:20;18.90;1.00
52415;DHT22;38340;52.964;6.086;2023-05-19T12:09:47;18.80;1.00
52415;DHT22;38340;52.964;6.086;2023-05-19T12:12:15;18.80;1.00
52415;DHT22;38340;52.964;6.086;2023-05-19T12:14:42;18.70;1.00
52415;DHT22;38340;52.964;6.086;2023-05-19T12:17:12;18.60;1.00
52415;DHT22;38340;52.964;6.086;2023-05-19T12:19:39;18.80;1.00
52415;DHT22;38340;52.964;6.086;2023-05-19T12:22:06;18.90;1.00
52415;DHT22;38340;52.964;6.086;2023-05-19T12:24:33;19.00;1.00
52415;DHT22;38340;52.964;6.086;2023-05-19T12:27:26;19.00;1.00
52415;DHT22;38340;52.964;6.086;2023-05-19T12:29:52;19.00;1.00
52415;DHT22;38340;52.964;6.086;2023-05-19T12:32:25;19.10;1.00
52415;DHT22;38340;52.964;6.086;2023-05-19T12:34:51;19.00;1.00
52415;DHT22;38340;52.964;6.086;2023-05-19T12:37:17;19.00;1.00
52415;DHT22;38340;52.964;6.086;2023-05-19T12:39:44;18.80;1.00
52415;DHT22;38340;52.964;6.086;2023-05-19T12:42:10;18.90;1.00
52415;DHT22;38340;52.964;6.086;2023-05-19T12:44:48;18.90;1.00
52415;DHT22;38340;52.964;6.086;2023-05-19T12:47:18;18.90;1.00
52415;DHT22;38340;52.964;6.086;2023-05-19T12:52:30;19.00;1.00
52415;DHT22;38340;52.964;6.086;2023-05-19T12:55:04;19.00;1.00
52415;DHT22;38340;52.964;6.086;2023-05-19T12:57:34;19.20;1.00
52415;DHT22;38340;52.964;6.086;2023-05-19T13:00:20;19.30;1.00
52415;DHT22;38340;52.964;6.086;2023-05-19T13:05:36;19.50;5.40
52415;DHT22;38340;52.964;6.086;2023-05-19T13:08:09;19.50;11.00
52415;DHT22;38340;52.964;6.086;2023-05-19T13:10:38;19.50;2.30
52415;DHT22;38340;52.964;6.086;2023-05-19T13:13:04;19.40;1.00
52415;DHT22;38340;52.964;6.086;2023-05-19T13:15:31;19.40;10.20
52415;DHT22;38340;52.964;6.086;2023-05-19T13:18:01;19.50;19.30
52415;DHT22;38340;52.964;6.086;2023-05-19T13:20:28;19.40;15.80
52415;DHT22;38340;52.964;6.086;2023-05-19T13:22:54;19.40;23.80
52415;DHT22;38340;52.964;6.086;2023-05-19T13:25:20;19.50;39.60
52415;DHT22;38340;52.964;6.086;2023-05-19T13:27:47;19.70;44.50
52415;DHT22;38340;52.964;6.086;2023-05-19T13:30:13;19.80;39.30
52415;DHT22;38340;52.964;6.086;2023-05-19T13:32:40;19.70;27.30
52415;DHT22;38340;52.964;6.086;2023-05-19T13:35:09;19.70;22.40
52415;DHT22;38340;52.964;6.086;2023-05-19T13:37:35;19.60;5.30
52415;DHT22;38340;52.964;6.086;2023-05-19T13:40:01;19.50;25.70
52415;DHT22;38340;52.964;6.086;2023-05-19T13:42:28;19.50;50.50
52415;DHT22;38340;52.964;6.086;2023-05-19T13:44:54;19.70;56.10
52415;DHT22;38340;52.964;6.086;2023-05-19T13:47:23;19.80;50.60
52415;DHT22;38340;52.964;6.086;2023-05-19T13:49:49;19.80;46.50
52415;DHT22;38340;52.964;6.086;2023-05-19T13:52:14;19.90;49.30
52415;DHT22;38340;52.964;6.086;2023-05-19T13:54:40;19.80;21.50
52415;DHT22;38340;52.964;6.086;2023-05-19T13:57:06;19.70;45.50
52415;DHT22;38340;52.964;6.086;2023-05-19T13:59:32;19.70;16.60
52415;DHT22;38340;52.964;6.086;2023-05-19T14:01:59;19.70;28.90
52415;DHT22;38340;52.964;6.086;2023-05-19T14:04:25;19.80;43.50
52415;DHT22;38340;52.964;6.086;2023-05-19T14:06:50;19.90;49.20
52415;DHT22;38340;52.964;6.086;2023-05-19T14:09:16;20.00;35.30
52415;DHT22;38340;52.964;6.086;2023-05-19T14:11:42;19.90;16.60
52415;DHT22;38340;52.964;6.086;2023-05-19T14:14:08;20.00;39.90
52415;DHT22;38340;52.964;6.086;2023-05-19T14:16:34;19.90;35.90
52415;DHT22;38340;52.964;6.086;2023-05-19T14:18:59;19.80;53.70
52415;DHT22;38340;52.964;6.086;2023-05-19T14:21:25;19.70;49.20
52415;DHT22;38340;52.964;6.086;2023-05-19T14:23:51;19.50;61.40
52415;DHT22;38340;52.964;6.086;2023-05-19T14:26:17;19.50;76.00
52415;DHT22;38340;52.964;6.086;2023-05-19T14:28:44;19.50;83.00
52415;DHT22;38340;52.964;6.086;2023-05-19T14:31:13;19.50;52.80
52415;DHT22;38340;52.964;6.086;2023-05-19T14:33:39;19.60;56.60
52415;DHT22;38340;52.964;6.086;2023-05-19T14:36:06;19.60;67.00
52415;DHT22;38340;52.964;6.086;2023-05-19T14:38:32;19.50;79.30
52415;DHT22;38340;52.964;6.086;2023-05-19T14:40:58;19.50;89.50
52415;DHT22;38340;52.964;6.086;2023-05-19T14:43:23;19.50;78.60
52415;DHT22;38340;52.964;6.086;2023-05-19T14:45:49;19.60;99.10
52415;DHT22;38340;52.964;6.086;2023-05-19T14:48:16;19.70;73.90
52415;DHT22;38340;52.964;6.086;2023-05-19T14:50:42;19.70;71.90
52415;DHT22;38340;52.964;6.086;2023-05-19T14:53:07;19.60;82.80
52415;DHT22;38340;52.964;6.086;2023-05-19T14:55:33;19.70;99.90
52415;DHT22;38340;52.964;6.086;2023-05-19T14:57:59;19.70;72.70
52415;DHT22;38340;52.964;6.086;2023-05-19T15:00:25;19.70;99.90
52415;DHT22;38340;52.964;6.086;2023-05-19T15:02:52;19.70;99.90
52415;DHT22;38340;52.964;6.086;2023-05-19T15:05:17;19.60;99.90
52415;DHT22;38340;52.964;6.086;2023-05-19T15:07:43;19.40;98.30
52415;DHT22;38340;52.964;6.086;2023-05-19T15:10:09;19.30;99.90
52415;DHT22;38340;52.964;6.086;2023-05-19T15:12:35;19.40;99.90
52415;DHT22;38340;52.964;6.086;2023-05-19T15:15:00;19.60;99.90
52415;DHT22;38340;52.964;6.086;2023-05-19T15:17:26;19.60;98.70
52415;DHT22;38340;52.964;6.086;2023-05-19T15:19:52;19.50;82.50
52415;DHT22;38340;52.964;6.086;2023-05-19T15:22:17;19.60;99.90
52415;DHT22;38340;52.964;6.086;2023-05-19T15:24:43;19.50;83.80
52415;DHT22;38340;52.964;6.086;2023-05-19T15:27:09;19.60;99.90
52415;DHT22;38340;52.964;6.086;2023-05-19T15:29:35;19.60;95.80
52415;DHT22;38340;52.964;6.086;2023-05-19T15:32:01;19.70;93.30
52415;DHT22;38340;52.964;6.086;2023-05-19T15:34:27;19.90;99.90
52415;DHT22;38340;52.964;6.086;2023-05-19T15:36:52;19.80;90.10
52415;DHT22;38340;52.964;6.086;2023-05-19T15:39:18;19.90;99.90
52415;DHT22;38340;52.964;6.086;2023-05-19T15:41:44;19.90;99.90
52415;DHT22;38340;52.964;6.086;2023-05-19T15:44:10;19.90;99.90
52415;DHT22;38340;52.964;6.086;2023-05-19T15:46:36;19.90;99.90
52415;DHT22;38340;52.964;6.086;2023-05-19T15:49:01;19.90;99.90
52415;DHT22;38340;52.964;6.086;2023-05-19T15:51:28;19.90;99.90
52415;DHT22;38340;52.964;6.086;2023-05-19T15:53:54;19.90;99.90
52415;DHT22;38340;52.964;6.086;2023-05-19T15:56:19;20.00;99.90
52415;DHT22;38340;52.964;6.086;2023-05-19T15:58:46;20.00;99.90
52415;DHT22;38340;52.964;6.086;2023-05-19T16:01:12;19.90;99.90
52415;DHT22;38340;52.964;6.086;2023-05-19T16:03:38;19.90;99.90
52415;DHT22;38340;52.964;6.086;2023-05-19T16:06:03;20.10;99.90
52415;DHT22;38340;52.964;6.086;2023-05-19T16:08:29;20.20;99.90
52415;DHT22;38340;52.964;6.086;2023-05-19T16:10:55;20.30;99.90
52415;DHT22;38340;52.964;6.086;2023-05-19T16:13:21;20.40;99.90
52415;DHT22;38340;52.964;6.086;2023-05-19T16:15:47;20.30;99.90
52415;DHT22;38340;52.964;6.086;2023-05-19T16:18:13;20.30;99.90